sensor_id;sensor_type;location;lat;lon;timestamp;temperature;humidity
71088;SHT31;58747;50.674;4.616;2022-08-19T00:00:15;18.42;83.63
71088;SHT31;58747;50.674;4.616;2022-08-19T00:02:42;18.39;83.64
71088;SHT31;58747;50.674;4.616;2022-08-19T00:05:09;18.39;83.63
71088;SHT31;58747;50.674;4.616;2022-08-19T00:07:34;18.35;83.80
71088;SHT31;58747;50.674;4.616;2022-08-19T00:10:00;18.39;84.15
71088;SHT31;58747;50.674;4.616;2022-08-19T00:12:25;18.38;84.18
71088;SHT31;58747;50.674;4.616;2022-08-19T00:14:51;18.36;84.06
71088;SHT31;58747;50.674;4.616;2022-08-19T00:17:18;18.33;84.16
71088;SHT31;58747;50.674;4.616;2022-08-19T00:19:43;18.35;84.39
71088;SHT31;58747;50.674;4.616;2022-08-19T00:22:08;18.31;84.53
71088;SHT31;58747;50.674;4.616;2022-08-19T00:24:34;18.33;84.60
71088;SHT31;58747;50.674;4.616;2022-08-19T00:27:00;18.32;84.47
71088;SHT31;58747;50.674;4.616;2022-08-19T00:29:27;18.31;84.38
71088;SHT31;58747;50.674;4.616;2022-08-19T00:31:53;18.32;84.39
71088;SHT31;58747;50.674;4.616;2022-08-19T00:34:21;18.29;84.48
71088;SHT31;58747;50.674;4.616;2022-08-19T00:36:47;18.29;84.51
71088;SHT31;58747;50.674;4.616;2022-08-19T00:39:13;18.36;84.39
71088;SHT31;58747;50.674;4.616;2022-08-19T00:41:42;18.38;84.48
71088;SHT31;58747;50.674;4.616;2022-08-19T00:44:12;18.39;84.64
71088;SHT31;58747;50.674;4.616;2022-08-19T00:46:40;18.40;84.54
71088;SHT31;58747;50.674;4.616;2022-08-19T00:49:19;18.31;84.53
71088;SHT31;58747;50.674;4.616;2022-08-19T00:51:51;18.25;84.64
71088;SHT31;58747;50.674;4.616;2022-08-19T00:54:19;18.16;84.60
71088;SHT31;58747;50.674;4.616;2022-08-19T00:56:46;18.18;84.49
71088;SHT31;58747;50.674;4.616;2022-08-19T00:59:12;18.18;84.40
71088;SHT31;58747;50.674;4.616;2022-08-19T01:01:41;18.15;84.52
71088;SHT31;58747;50.674;4.616;2022-08-19T01:04:08;18.11;84.36
71088;SHT31;58747;50.674;4.616;2022-08-19T01:06:36;18.09;84.37
71088;SHT31;58747;50.674;4.616;2022-08-19T01:09:03;18.05;84.32
71088;SHT31;58747;50.674;4.616;2022-08-19T01:11:31;18.04;84.41
71088;SHT31;58747;50.674;4.616;2022-08-19T01:13:58;18.00;84.24
71088;SHT31;58747;50.674;4.616;2022-08-19T01:16:25;17.95;84.25
71088;SHT31;58747;50.674;4.616;2022-08-19T01:18:53;17.92;84.25
71088;SHT31;58747;50.674;4.616;2022-08-19T01:21:32;17.87;84.27
71088;SHT31;58747;50.674;4.616;2022-08-19T01:23:59;17.87;84.30
71088;SHT31;58747;50.674;4.616;2022-08-19T01:26:26;17.78;84.44
71088;SHT31;58747;50.674;4.616;2022-08-19T01:28:55;17.74;84.63
71088;SHT31;58747;50.674;4.616;2022-08-19T01:31:26;17.74;84.80
71088;SHT31;58747;50.674;4.616;2022-08-19T01:33:53;17.70;84.86
71088;SHT31;58747;50.674;4.616;2022-08-19T01:36:27;17.64;84.90
71088;SHT31;58747;50.674;4.616;2022-08-19T01:38:53;17.64;84.92
71088;SHT31;58747;50.674;4.616;2022-08-19T01:41:19;17.59;85.12
71088;SHT31;58747;50.674;4.616;2022-08-19T01:43:44;17.55;85.21
71088;SHT31;58747;50.674;4.616;2022-08-19T01:46:10;17.57;85.25
71088;SHT31;58747;50.674;4.616;2022-08-19T01:48:38;17.49;85.40
71088;SHT31;58747;50.674;4.616;2022-08-19T01:51:03;17.46;85.33
71088;SHT31;58747;50.674;4.616;2022-08-19T01:53:29;17.46;85.37
71088;SHT31;58747;50.674;4.616;2022-08-19T01:55:55;17.47;85.35
71088;SHT31;58747;50.674;4.616;2022-08-19T01:58:23;17.44;85.48
71088;SHT31;58747;50.674;4.616;2022-08-19T02:00:49;17.43;85.69
71088;SHT31;58747;50.674;4.616;2022-08-19T02:03:15;17.39;85.81
71088;SHT31;58747;50.674;4.616;2022-08-19T02:05:41;17.40;85.98
71088;SHT31;58747;50.674;4.616;2022-08-19T02:08:07;17.39;85.87
71088;SHT31;58747;50.674;4.616;2022-08-19T02:10:33;17.34;86.14
71088;SHT31;58747;50.674;4.616;2022-08-19T02:12:59;17.30;86.26
71088;SHT31;58747;50.674;4.616;2022-08-19T02:15:24;17.36;86.24
71088;SHT31;58747;50.674;4.616;2022-08-19T02:17:51;17.34;86.58
71088;SHT31;58747;50.674;4.616;2022-08-19T02:20:17;17.30;86.89
71088;SHT31;58747;50.674;4.616;2022-08-19T02:22:43;17.30;86.86
71088;SHT31;58747;50.674;4.616;2022-08-19T02:25:10;17.29;86.72
71088;SHT31;58747;50.674;4.616;2022-08-19T02:27:36;17.30;86.85
71088;SHT31;58747;50.674;4.616;2022-08-19T02:30:04;17.27;86.74
71088;SHT31;58747;50.674;4.616;2022-08-19T02:32:30;17.30;86.75
71088;SHT31;58747;50.674;4.616;2022-08-19T02:34:55;17.22;86.90
71088;SHT31;58747;50.674;4.616;2022-08-19T02:37:21;17.22;86.89
71088;SHT31;58747;50.674;4.616;2022-08-19T02:40:05;17.20;86.80
71088;SHT31;58747;50.674;4.616;2022-08-19T02:42:31;17.22;86.84
71088;SHT31;58747;50.674;4.616;2022-08-19T02:44:57;17.23;86.89
71088;SHT31;58747;50.674;4.616;2022-08-19T02:47:22;17.23;86.79
71088;SHT31;58747;50.674;4.616;2022-08-19T02:49:48;17.22;86.78
71088;SHT31;58747;50.674;4.616;2022-08-19T02:52:15;17.15;86.95
71088;SHT31;58747;50.674;4.616;2022-08-19T02:54:41;17.15;86.79
71088;SHT31;58747;50.674;4.616;2022-08-19T02:57:07;17.15;86.79
71088;SHT31;58747;50.674;4.616;2022-08-19T02:59:33;17.11;86.64
71088;SHT31;58747;50.674;4.616;2022-08-19T03:01:59;17.12;86.47
71088;SHT31;58747;50.674;4.616;2022-08-19T03:04:24;17.13;86.41
71088;SHT31;58747;50.674;4.616;2022-08-19T03:06:50;17.15;86.33
71088;SHT31;58747;50.674;4.616;2022-08-19T03:09:18;17.12;86.06
71088;SHT31;58747;50.674;4.616;2022-08-19T03:11:43;17.06;86.10
71088;SHT31;58747;50.674;4.616;2022-08-19T03:14:09;17.08;85.90
71088;SHT31;58747;50.674;4.616;2022-08-19T03:16:41;17.02;85.88
71088;SHT31;58747;50.674;4.616;2022-08-19T03:19:07;16.98;85.63
71088;SHT31;58747;50.674;4.616;2022-08-19T03:21:33;16.98;85.70
71088;SHT31;58747;50.674;4.616;2022-08-19T03:24:02;16.96;85.57
71088;SHT31;58747;50.674;4.616;2022-08-19T03:26:28;16.92;85.38
71088;SHT31;58747;50.674;4.616;2022-08-19T03:28:54;16.88;85.56
71088;SHT31;58747;50.674;4.616;2022-08-19T03:31:22;16.88;85.55
71088;SHT31;58747;50.674;4.616;2022-08-19T03:33:50;16.88;85.45
71088;SHT31;58747;50.674;4.616;2022-08-19T03:36:26;16.84;85.43
71088;SHT31;58747;50.674;4.616;2022-08-19T03:38:57;16.82;85.55
71088;SHT31;58747;50.674;4.616;2022-08-19T03:41:26;16.79;85.42
71088;SHT31;58747;50.674;4.616;2022-08-19T03:43:53;16.79;85.36
71088;SHT31;58747;50.674;4.616;2022-08-19T03:46:21;16.78;85.49
71088;SHT31;58747;50.674;4.616;2022-08-19T03:48:50;16.75;85.46
71088;SHT31;58747;50.674;4.616;2022-08-19T03:51:21;16.71;85.35
71088;SHT31;58747;50.674;4.616;2022-08-19T03:53:47;16.69;85.40
71088;SHT31;58747;50.674;4.616;2022-08-19T03:56:14;16.64;85.63
71088;SHT31;58747;50.674;4.616;2022-08-19T03:58:40;16.63;85.59
71088;SHT31;58747;50.674;4.616;2022-08-19T04:01:11;16.64;85.58
71088;SHT31;58747;50.674;4.616;2022-08-19T04:03:39;16.58;85.60
71088;SHT31;58747;50.674;4.616;2022-08-19T04:06:21;16.51;85.97
71088;SHT31;58747;50.674;4.616;2022-08-19T04:08:48;16.55;85.92
71088;SHT31;58747;50.674;4.616;2022-08-19T04:11:18;16.53;86.14
71088;SHT31;58747;50.674;4.616;2022-08-19T04:13:46;16.48;86.21
71088;SHT31;58747;50.674;4.616;2022-08-19T04:16:12;16.51;85.99
71088;SHT31;58747;50.674;4.616;2022-08-19T04:18:39;16.47;86.27
71088;SHT31;58747;50.674;4.616;2022-08-19T04:21:06;16.38;86.46
71088;SHT31;58747;50.674;4.616;2022-08-19T04:23:32;16.38;86.54
71088;SHT31;58747;50.674;4.616;2022-08-19T04:25:58;16.38;86.56
71088;SHT31;58747;50.674;4.616;2022-08-19T04:28:24;16.40;86.59
71088;SHT31;58747;50.674;4.616;2022-08-19T04:30:52;16.43;86.50
71088;SHT31;58747;50.674;4.616;2022-08-19T04:33:21;16.34;86.76
71088;SHT31;58747;50.674;4.616;2022-08-19T04:35:49;16.37;86.84
71088;SHT31;58747;50.674;4.616;2022-08-19T04:38:17;16.34;86.96
71088;SHT31;58747;50.674;4.616;2022-08-19T04:40:46;16.30;87.05
71088;SHT31;58747;50.674;4.616;2022-08-19T04:43:32;16.38;87.00
71088;SHT31;58747;50.674;4.616;2022-08-19T04:45:58;16.43;87.03
71088;SHT31;58747;50.674;4.616;2022-08-19T04:48:23;16.53;86.86
71088;SHT31;58747;50.674;4.616;2022-08-19T04:50:53;16.54;87.10
71088;SHT31;58747;50.674;4.616;2022-08-19T04:53:27;16.55;86.93
71088;SHT31;58747;50.674;4.616;2022-08-19T04:55:54;16.54;86.85
71088;SHT31;58747;50.674;4.616;2022-08-19T04:58:20;16.55;86.81
71088;SHT31;58747;50.674;4.616;2022-08-19T05:00:45;16.53;86.82
71088;SHT31;58747;50.674;4.616;2022-08-19T05:03:11;16.55;86.86
71088;SHT31;58747;50.674;4.616;2022-08-19T05:05:41;16.63;86.68
71088;SHT31;58747;50.674;4.616;2022-08-19T05:08:07;16.55;86.75
71088;SHT31;58747;50.674;4.616;2022-08-19T05:10:35;16.63;86.72
71088;SHT31;58747;50.674;4.616;2022-08-19T05:13:01;16.68;86.51
71088;SHT31;58747;50.674;4.616;2022-08-19T05:15:26;16.72;86.17
71088;SHT31;58747;50.674;4.616;2022-08-19T05:17:51;16.74;86.01
71088;SHT31;58747;50.674;4.616;2022-08-19T05:20:38;16.58;86.05
71088;SHT31;58747;50.674;4.616;2022-08-19T05:23:21;16.57;86.29
71088;SHT31;58747;50.674;4.616;2022-08-19T05:25:47;16.55;86.37
71088;SHT31;58747;50.674;4.616;2022-08-19T05:28:12;16.57;86.41
71088;SHT31;58747;50.674;4.616;2022-08-19T05:30:37;16.57;86.46
71088;SHT31;58747;50.674;4.616;2022-08-19T05:33:03;16.61;86.36
71088;SHT31;58747;50.674;4.616;2022-08-19T05:35:28;16.58;86.34
71088;SHT31;58747;50.674;4.616;2022-08-19T05:37:53;16.67;86.53
71088;SHT31;58747;50.674;4.616;2022-08-19T05:40:19;16.64;86.21
71088;SHT31;58747;50.674;4.616;2022-08-19T05:42:45;16.61;86.06
71088;SHT31;58747;50.674;4.616;2022-08-19T05:45:11;16.61;86.27
71088;SHT31;58747;50.674;4.616;2022-08-19T05:47:36;16.60;86.30
71088;SHT31;58747;50.674;4.616;2022-08-19T05:50:02;16.50;86.74
71088;SHT31;58747;50.674;4.616;2022-08-19T05:52:28;16.50;86.80
71088;SHT31;58747;50.674;4.616;2022-08-19T05:54:54;16.51;86.70
71088;SHT31;58747;50.674;4.616;2022-08-19T05:57:23;16.53;86.70
71088;SHT31;58747;50.674;4.616;2022-08-19T05:59:49;16.60;86.48
71088;SHT31;58747;50.674;4.616;2022-08-19T06:02:16;16.57;86.77
71088;SHT31;58747;50.674;4.616;2022-08-19T06:04:41;16.63;86.48
71088;SHT31;58747;50.674;4.616;2022-08-19T06:07:10;16.69;86.30
71088;SHT31;58747;50.674;4.616;2022-08-19T06:09:35;16.76;86.34
71088;SHT31;58747;50.674;4.616;2022-08-19T06:12:02;16.71;86.37
71088;SHT31;58747;50.674;4.616;2022-08-19T06:14:32;16.81;86.23
71088;SHT31;58747;50.674;4.616;2022-08-19T06:17:00;16.85;86.15
71088;SHT31;58747;50.674;4.616;2022-08-19T06:19:26;16.99;86.09
71088;SHT31;58747;50.674;4.616;2022-08-19T06:21:56;17.15;85.41
71088;SHT31;58747;50.674;4.616;2022-08-19T06:24:24;17.26;84.69
71088;SHT31;58747;50.674;4.616;2022-08-19T06:26:53;17.37;84.68
71088;SHT31;58747;50.674;4.616;2022-08-19T06:29:21;17.47;84.04
71088;SHT31;58747;50.674;4.616;2022-08-19T06:31:52;17.61;83.99
71088;SHT31;58747;50.674;4.616;2022-08-19T06:34:19;17.70;83.46
71088;SHT31;58747;50.674;4.616;2022-08-19T06:36:47;17.88;82.78
71088;SHT31;58747;50.674;4.616;2022-08-19T06:39:16;17.92;82.67
71088;SHT31;58747;50.674;4.616;2022-08-19T06:41:46;18.11;82.76
71088;SHT31;58747;50.674;4.616;2022-08-19T06:44:12;18.18;81.92
71088;SHT31;58747;50.674;4.616;2022-08-19T06:46:40;18.24;81.84
71088;SHT31;58747;50.674;4.616;2022-08-19T06:49:06;18.25;82.05
71088;SHT31;58747;50.674;4.616;2022-08-19T06:51:35;18.35;81.63
71088;SHT31;58747;50.674;4.616;2022-08-19T06:54:01;18.53;81.34
71088;SHT31;58747;50.674;4.616;2022-08-19T06:56:30;18.61;80.90
71088;SHT31;58747;50.674;4.616;2022-08-19T06:59:08;18.67;80.71
71088;SHT31;58747;50.674;4.616;2022-08-19T07:01:42;18.80;80.25
71088;SHT31;58747;50.674;4.616;2022-08-19T07:04:13;18.87;80.36
71088;SHT31;58747;50.674;4.616;2022-08-19T07:06:38;18.98;79.98
71088;SHT31;58747;50.674;4.616;2022-08-19T07:09:04;19.07;79.86
71088;SHT31;58747;50.674;4.616;2022-08-19T07:11:30;19.10;79.60
71088;SHT31;58747;50.674;4.616;2022-08-19T07:13:57;19.10;79.70
71088;SHT31;58747;50.674;4.616;2022-08-19T07:16:23;19.07;79.62
71088;SHT31;58747;50.674;4.616;2022-08-19T07:18:49;19.14;79.79
71088;SHT31;58747;50.674;4.616;2022-08-19T07:21:21;19.17;80.01
71088;SHT31;58747;50.674;4.616;2022-08-19T07:23:48;19.24;79.52
71088;SHT31;58747;50.674;4.616;2022-08-19T07:26:15;19.27;79.38
71088;SHT31;58747;50.674;4.616;2022-08-19T07:28:41;19.32;79.55
71088;SHT31;58747;50.674;4.616;2022-08-19T07:31:13;19.45;79.27
71088;SHT31;58747;50.674;4.616;2022-08-19T07:33:40;19.87;78.16
71088;SHT31;58747;50.674;4.616;2022-08-19T07:36:10;20.07;77.34
71088;SHT31;58747;50.674;4.616;2022-08-19T07:38:44;20.31;76.56
71088;SHT31;58747;50.674;4.616;2022-08-19T07:41:12;20.41;75.89
71088;SHT31;58747;50.674;4.616;2022-08-19T07:43:39;20.21;76.51
71088;SHT31;58747;50.674;4.616;2022-08-19T07:46:06;20.33;76.08
71088;SHT31;58747;50.674;4.616;2022-08-19T07:48:32;20.35;75.96
71088;SHT31;58747;50.674;4.616;2022-08-19T07:51:01;20.40;75.93
71088;SHT31;58747;50.674;4.616;2022-08-19T07:53:30;20.41;75.72
71088;SHT31;58747;50.674;4.616;2022-08-19T07:55:56;20.40;75.87
71088;SHT31;58747;50.674;4.616;2022-08-19T07:58:25;20.47;76.14
71088;SHT31;58747;50.674;4.616;2022-08-19T08:00:50;20.67;75.59
71088;SHT31;58747;50.674;4.616;2022-08-19T08:03:20;20.75;75.34
71088;SHT31;58747;50.674;4.616;2022-08-19T08:05:45;20.81;75.57
71088;SHT31;58747;50.674;4.616;2022-08-19T08:08:30;20.88;75.07
71088;SHT31;58747;50.674;4.616;2022-08-19T08:11:17;20.95;74.64
71088;SHT31;58747;50.674;4.616;2022-08-19T08:13:43;20.85;74.98
71088;SHT31;58747;50.674;4.616;2022-08-19T08:16:09;20.81;75.33
71088;SHT31;58747;50.674;4.616;2022-08-19T08:18:35;20.76;75.04
71088;SHT31;58747;50.674;4.616;2022-08-19T08:21:06;20.82;74.98
71088;SHT31;58747;50.674;4.616;2022-08-19T08:23:32;20.92;74.60
71088;SHT31;58747;50.674;4.616;2022-08-19T08:25:57;21.14;74.71
71088;SHT31;58747;50.674;4.616;2022-08-19T08:28:24;21.26;73.46
71088;SHT31;58747;50.674;4.616;2022-08-19T08:30:50;21.40;73.10
71088;SHT31;58747;50.674;4.616;2022-08-19T08:33:21;21.39;72.69
71088;SHT31;58747;50.674;4.616;2022-08-19T08:35:47;21.39;72.36
71088;SHT31;58747;50.674;4.616;2022-08-19T08:38:13;21.46;72.61
71088;SHT31;58747;50.674;4.616;2022-08-19T08:40:47;21.57;72.85
71088;SHT31;58747;50.674;4.616;2022-08-19T08:43:23;21.60;72.74
71088;SHT31;58747;50.674;4.616;2022-08-19T08:46:13;21.70;72.12
71088;SHT31;58747;50.674;4.616;2022-08-19T08:48:56;21.74;72.39
71088;SHT31;58747;50.674;4.616;2022-08-19T08:51:37;21.84;72.22
71088;SHT31;58747;50.674;4.616;2022-08-19T08:54:06;22.02;71.42
71088;SHT31;58747;50.674;4.616;2022-08-19T08:56:32;22.06;71.79
71088;SHT31;58747;50.674;4.616;2022-08-19T08:59:31;22.20;70.05
71088;SHT31;58747;50.674;4.616;2022-08-19T09:01:59;22.05;70.86
71088;SHT31;58747;50.674;4.616;2022-08-19T09:04:24;22.04;70.92
71088;SHT31;58747;50.674;4.616;2022-08-19T09:06:55;21.90;71.67
71088;SHT31;58747;50.674;4.616;2022-08-19T09:17:00;22.12;72.17
71088;SHT31;58747;50.674;4.616;2022-08-19T09:19:29;22.20;71.95
71088;SHT31;58747;50.674;4.616;2022-08-19T09:21:54;22.32;72.36
71088;SHT31;58747;50.674;4.616;2022-08-19T09:24:19;22.13;72.21
71088;SHT31;58747;50.674;4.616;2022-08-19T09:26:45;22.08;72.90
71088;SHT31;58747;50.674;4.616;2022-08-19T09:29:10;21.92;72.85
71088;SHT31;58747;50.674;4.616;2022-08-19T09:31:36;22.13;72.63
71088;SHT31;58747;50.674;4.616;2022-08-19T09:34:02;22.19;72.63
71088;SHT31;58747;50.674;4.616;2022-08-19T09:36:30;22.05;72.77
71088;SHT31;58747;50.674;4.616;2022-08-19T09:38:58;22.23;72.63
71088;SHT31;58747;50.674;4.616;2022-08-19T09:41:25;22.33;72.44
71088;SHT31;58747;50.674;4.616;2022-08-19T09:43:53;22.18;72.61
71088;SHT31;58747;50.674;4.616;2022-08-19T09:46:20;22.12;72.92
71088;SHT31;58747;50.674;4.616;2022-08-19T09:48:47;22.12;73.24
71088;SHT31;58747;50.674;4.616;2022-08-19T09:51:16;22.16;73.26
71088;SHT31;58747;50.674;4.616;2022-08-19T09:53:43;22.06;73.03
71088;SHT31;58747;50.674;4.616;2022-08-19T09:56:10;22.06;73.58
71088;SHT31;58747;50.674;4.616;2022-08-19T09:58:36;21.68;74.75
71088;SHT31;58747;50.674;4.616;2022-08-19T10:01:03;21.73;75.16
71088;SHT31;58747;50.674;4.616;2022-08-19T10:03:31;21.64;75.24
71088;SHT31;58747;50.674;4.616;2022-08-19T10:05:58;21.78;75.23
71088;SHT31;58747;50.674;4.616;2022-08-19T10:08:27;21.95;73.48
71088;SHT31;58747;50.674;4.616;2022-08-19T10:10:54;21.85;74.54
71088;SHT31;58747;50.674;4.616;2022-08-19T10:13:24;21.88;74.71
71088;SHT31;58747;50.674;4.616;2022-08-19T10:15:56;21.75;74.86
71088;SHT31;58747;50.674;4.616;2022-08-19T10:18:24;21.88;74.71
71088;SHT31;58747;50.674;4.616;2022-08-19T10:20:51;21.85;74.74
71088;SHT31;58747;50.674;4.616;2022-08-19T10:23:20;21.85;74.95
71088;SHT31;58747;50.674;4.616;2022-08-19T10:25:46;21.78;75.22
71088;SHT31;58747;50.674;4.616;2022-08-19T10:28:11;21.74;75.30
71088;SHT31;58747;50.674;4.616;2022-08-19T10:30:38;21.85;75.12
71088;SHT31;58747;50.674;4.616;2022-08-19T10:33:04;21.95;75.20
71088;SHT31;58747;50.674;4.616;2022-08-19T10:35:30;21.97;75.12
71088;SHT31;58747;50.674;4.616;2022-08-19T10:37:56;22.02;75.05
71088;SHT31;58747;50.674;4.616;2022-08-19T10:40:25;22.20;74.66
71088;SHT31;58747;50.674;4.616;2022-08-19T10:42:51;22.46;73.75
71088;SHT31;58747;50.674;4.616;2022-08-19T10:45:17;22.56;73.29
71088;SHT31;58747;50.674;4.616;2022-08-19T10:47:42;22.43;73.53
71088;SHT31;58747;50.674;4.616;2022-08-19T10:50:07;22.55;73.22
71088;SHT31;58747;50.674;4.616;2022-08-19T10:52:51;22.39;73.79
71088;SHT31;58747;50.674;4.616;2022-08-19T10:55:19;22.25;73.99
71088;SHT31;58747;50.674;4.616;2022-08-19T10:58:04;22.43;73.64
71088;SHT31;58747;50.674;4.616;2022-08-19T11:00:29;22.63;74.10
71088;SHT31;58747;50.674;4.616;2022-08-19T11:02:56;22.60;73.02
71088;SHT31;58747;50.674;4.616;2022-08-19T11:05:22;22.57;73.29
71088;SHT31;58747;50.674;4.616;2022-08-19T11:07:47;22.53;73.31
71088;SHT31;58747;50.674;4.616;2022-08-19T11:10:15;22.49;73.33
71088;SHT31;58747;50.674;4.616;2022-08-19T11:12:44;22.30;73.95
71088;SHT31;58747;50.674;4.616;2022-08-19T11:15:10;22.26;74.09
71088;SHT31;58747;50.674;4.616;2022-08-19T11:17:39;22.16;74.01
71088;SHT31;58747;50.674;4.616;2022-08-19T11:20:10;22.26;74.53
71088;SHT31;58747;50.674;4.616;2022-08-19T11:22:37;22.29;74.19
71088;SHT31;58747;50.674;4.616;2022-08-19T11:25:02;22.30;74.65
71088;SHT31;58747;50.674;4.616;2022-08-19T11:27:28;22.45;74.57
71088;SHT31;58747;50.674;4.616;2022-08-19T11:29:54;22.63;73.32
71088;SHT31;58747;50.674;4.616;2022-08-19T11:32:19;22.49;72.81
71088;SHT31;58747;50.674;4.616;2022-08-19T11:34:45;22.43;73.06
71088;SHT31;58747;50.674;4.616;2022-08-19T11:37:10;22.33;74.09
71088;SHT31;58747;50.674;4.616;2022-08-19T11:39:36;22.02;74.93
71088;SHT31;58747;50.674;4.616;2022-08-19T11:42:04;22.04;75.14
71088;SHT31;58747;50.674;4.616;2022-08-19T11:44:53;21.92;75.42
71088;SHT31;58747;50.674;4.616;2022-08-19T11:47:19;21.94;75.66
71088;SHT31;58747;50.674;4.616;2022-08-19T11:49:46;21.94;75.95
71088;SHT31;58747;50.674;4.616;2022-08-19T11:52:11;22.12;75.30
71088;SHT31;58747;50.674;4.616;2022-08-19T11:54:36;22.39;73.94
71088;SHT31;58747;50.674;4.616;2022-08-19T11:57:03;22.55;73.66
71088;SHT31;58747;50.674;4.616;2022-08-19T11:59:29;22.67;74.11
71088;SHT31;58747;50.674;4.616;2022-08-19T12:01:55;22.84;72.36
71088;SHT31;58747;50.674;4.616;2022-08-19T12:04:21;23.15;71.30
71088;SHT31;58747;50.674;4.616;2022-08-19T12:06:47;23.07;71.28
71088;SHT31;58747;50.674;4.616;2022-08-19T12:09:12;23.14;71.06
71088;SHT31;58747;50.674;4.616;2022-08-19T12:11:39;23.04;70.46
71088;SHT31;58747;50.674;4.616;2022-08-19T12:14:05;23.10;71.22
71088;SHT31;58747;50.674;4.616;2022-08-19T12:16:31;23.31;71.66
71088;SHT31;58747;50.674;4.616;2022-08-19T12:18:58;23.24;70.45
71088;SHT31;58747;50.674;4.616;2022-08-19T12:21:28;23.25;70.40
71088;SHT31;58747;50.674;4.616;2022-08-19T12:23:56;23.28;70.09
71088;SHT31;58747;50.674;4.616;2022-08-19T12:26:23;23.54;70.30
71088;SHT31;58747;50.674;4.616;2022-08-19T12:28:49;23.73;69.77
71088;SHT31;58747;50.674;4.616;2022-08-19T12:31:15;23.90;69.28
71088;SHT31;58747;50.674;4.616;2022-08-19T12:33:41;24.03;68.89
71088;SHT31;58747;50.674;4.616;2022-08-19T12:36:09;23.90;68.02
71088;SHT31;58747;50.674;4.616;2022-08-19T12:38:36;23.76;69.36
71088;SHT31;58747;50.674;4.616;2022-08-19T12:41:03;23.80;68.69
71088;SHT31;58747;50.674;4.616;2022-08-19T12:43:31;23.84;69.00
71088;SHT31;58747;50.674;4.616;2022-08-19T12:45:57;24.02;68.29
71088;SHT31;58747;50.674;4.616;2022-08-19T12:48:22;24.21;67.45
71088;SHT31;58747;50.674;4.616;2022-08-19T12:50:48;24.28;67.30
71088;SHT31;58747;50.674;4.616;2022-08-19T12:53:14;24.55;66.07
71088;SHT31;58747;50.674;4.616;2022-08-19T12:55:40;25.09;64.83
71088;SHT31;58747;50.674;4.616;2022-08-19T12:58:05;26.66;60.95
71088;SHT31;58747;50.674;4.616;2022-08-19T13:00:31;28.33;55.16
71088;SHT31;58747;50.674;4.616;2022-08-19T13:02:58;28.18;54.87
71088;SHT31;58747;50.674;4.616;2022-08-19T13:05:27;27.49;56.28
71088;SHT31;58747;50.674;4.616;2022-08-19T13:07:54;26.72;58.81
71088;SHT31;58747;50.674;4.616;2022-08-19T13:10:22;26.39;59.47
71088;SHT31;58747;50.674;4.616;2022-08-19T13:12:50;26.01;61.12
71088;SHT31;58747;50.674;4.616;2022-08-19T13:15:17;25.77;60.72
71088;SHT31;58747;50.674;4.616;2022-08-19T13:17:47;25.40;61.33
71088;SHT31;58747;50.674;4.616;2022-08-19T13:20:15;25.39;62.44
71088;SHT31;58747;50.674;4.616;2022-08-19T13:22:40;25.24;62.97
71088;SHT31;58747;50.674;4.616;2022-08-19T13:25:07;25.10;63.87
71088;SHT31;58747;50.674;4.616;2022-08-19T13:27:33;25.29;62.73
71088;SHT31;58747;50.674;4.616;2022-08-19T13:29:59;25.20;62.69
71088;SHT31;58747;50.674;4.616;2022-08-19T13:32:43;25.06;64.25
71088;SHT31;58747;50.674;4.616;2022-08-19T13:35:27;25.24;63.60
71088;SHT31;58747;50.674;4.616;2022-08-19T13:37:53;24.83;62.96
71088;SHT31;58747;50.674;4.616;2022-08-19T13:40:20;24.61;63.95
71088;SHT31;58747;50.674;4.616;2022-08-19T13:42:50;24.68;64.33
71088;SHT31;58747;50.674;4.616;2022-08-19T13:45:18;24.52;65.50
71088;SHT31;58747;50.674;4.616;2022-08-19T13:47:46;24.69;66.29
71088;SHT31;58747;50.674;4.616;2022-08-19T13:50:15;24.85;65.07
71088;SHT31;58747;50.674;4.616;2022-08-19T13:52:41;24.73;63.29
71088;SHT31;58747;50.674;4.616;2022-08-19T13:55:08;24.88;63.00
71088;SHT31;58747;50.674;4.616;2022-08-19T13:57:34;25.00;63.09
71088;SHT31;58747;50.674;4.616;2022-08-19T14:00:00;25.15;63.18
71088;SHT31;58747;50.674;4.616;2022-08-19T14:02:26;25.27;62.95
71088;SHT31;58747;50.674;4.616;2022-08-19T14:04:52;25.23;63.71
71088;SHT31;58747;50.674;4.616;2022-08-19T14:07:17;25.36;62.98
71088;SHT31;58747;50.674;4.616;2022-08-19T14:09:43;25.31;63.14
71088;SHT31;58747;50.674;4.616;2022-08-19T14:12:08;25.26;63.62
71088;SHT31;58747;50.674;4.616;2022-08-19T14:14:38;25.18;63.63
71088;SHT31;58747;50.674;4.616;2022-08-19T14:17:07;25.13;63.80
71088;SHT31;58747;50.674;4.616;2022-08-19T14:19:33;25.10;63.64
71088;SHT31;58747;50.674;4.616;2022-08-19T14:21:58;25.33;62.72
71088;SHT31;58747;50.674;4.616;2022-08-19T14:24:24;25.18;62.38
71088;SHT31;58747;50.674;4.616;2022-08-19T14:26:49;24.99;63.40
71088;SHT31;58747;50.674;4.616;2022-08-19T14:29:15;24.79;63.72
71088;SHT31;58747;50.674;4.616;2022-08-19T14:31:41;24.64;64.66
71088;SHT31;58747;50.674;4.616;2022-08-19T14:34:08;24.65;65.13
71088;SHT31;58747;50.674;4.616;2022-08-19T14:36:36;24.20;66.84
71088;SHT31;58747;50.674;4.616;2022-08-19T14:39:01;23.97;68.24
71088;SHT31;58747;50.674;4.616;2022-08-19T14:41:27;23.55;69.87
71088;SHT31;58747;50.674;4.616;2022-08-19T14:43:54;23.61;69.94
71088;SHT31;58747;50.674;4.616;2022-08-19T14:46:22;23.66;69.86
71088;SHT31;58747;50.674;4.616;2022-08-19T14:48:49;23.25;71.11
71088;SHT31;58747;50.674;4.616;2022-08-19T14:51:15;23.12;73.34
71088;SHT31;58747;50.674;4.616;2022-08-19T14:53:41;22.66;77.14
71088;SHT31;58747;50.674;4.616;2022-08-19T14:56:11;22.15;79.65
71088;SHT31;58747;50.674;4.616;2022-08-19T14:58:36;21.95;81.43
71088;SHT31;58747;50.674;4.616;2022-08-19T15:01:02;21.77;81.80
71088;SHT31;58747;50.674;4.616;2022-08-19T15:03:29;21.74;82.28
71088;SHT31;58747;50.674;4.616;2022-08-19T15:05:55;21.74;82.96
71088;SHT31;58747;50.674;4.616;2022-08-19T15:08:22;21.80;82.43
71088;SHT31;58747;50.674;4.616;2022-08-19T15:10:50;22.08;82.15
71088;SHT31;58747;50.674;4.616;2022-08-19T15:13:15;22.33;81.33
71088;SHT31;58747;50.674;4.616;2022-08-19T15:15:40;22.35;81.78
71088;SHT31;58747;50.674;4.616;2022-08-19T15:18:06;22.33;81.59
71088;SHT31;58747;50.674;4.616;2022-08-19T15:20:31;22.26;81.75
71088;SHT31;58747;50.674;4.616;2022-08-19T15:22:57;22.57;81.92
71088;SHT31;58747;50.674;4.616;2022-08-19T15:25:26;22.73;80.83
71088;SHT31;58747;50.674;4.616;2022-08-19T15:27:52;22.77;79.17
71088;SHT31;58747;50.674;4.616;2022-08-19T15:30:26;22.78;79.08
71088;SHT31;58747;50.674;4.616;2022-08-19T15:32:52;22.81;78.59
71088;SHT31;58747;50.674;4.616;2022-08-19T15:35:21;22.90;78.16
71088;SHT31;58747;50.674;4.616;2022-08-19T15:37:51;23.04;75.85
71088;SHT31;58747;50.674;4.616;2022-08-19T15:40:18;23.01;74.44